Time;durP1;ratioP1;P1;durP2;ratioP2;P2;SDS_P1;SDS_P2;PMS_P1;PMS_P2;Temp;Humidity;BMP_temperature;BMP_pressure;BME280_temperature;BME280_humidity;BME280_pressure;Samples;Min_cycle;Max_cycle;Signal;HPM_P1;HPM_P2
2021/03/16 00:00:20;;;;;;;20.17;15.65;;;;;;;4.59;88.83;98154.38;1653145;85;21535;-61
2021/03/16 00:03:06;;;;;;;17.87;15.20;;;;;;;4.58;88.84;98151.41;1653201;86;21100;-61
2021/03/16 00:05:36;;;;;;;15.98;14.33;;;;;;;4.59;88.81;98143.23;1652534;86;21155;-61
2021/03/16 00:08:04;;;;;;;13.98;12.58;;;;;;;4.58;88.44;98151.85;1653135;86;21818;-60
2021/03/16 00:10:31;;;;;;;14.55;13.05;;;;;;;4.57;88.47;98143.29;1653187;86;21473;-60
2021/03/16 00:12:59;;;;;;;15.08;13.45;;;;;;;4.56;88.12;98139.48;1653162;86;21112;-60
2021/03/16 00:15:27;;;;;;;15.25;13.35;;;;;;;4.52;88.01;98146.48;1653166;86;21136;-60
2021/03/16 00:17:55;;;;;;;16.70;14.90;;;;;;;4.52;88.01;98139.20;1653150;86;21159;-60
2021/03/16 00:20:23;;;;;;;16.32;14.63;;;;;;;4.47;87.74;98138.09;1653132;85;21053;-60
2021/03/16 00:22:50;;;;;;;14.73;12.15;;;;;;;4.39;87.59;98133.70;1653255;86;22106;-60
2021/03/16 00:25:17;;;;;;;17.20;15.40;;;;;;;4.31;87.79;98136.99;1653122;86;21144;-61
2021/03/16 00:27:45;;;;;;;16.15;14.43;;;;;;;4.28;88.24;98134.08;1653124;86;21196;-61
2021/03/16 00:30:14;;;;;;;20.27;17.98;;;;;;;4.33;88.81;98124.91;1653156;86;21073;-61
2021/03/16 00:32:42;;;;;;;23.73;18.00;;;;;;;4.36;89.07;98124.34;1653283;86;21516;-60
2021/03/16 00:35:12;;;;;;;15.58;12.90;;;;;;;4.43;89.24;98128.80;1653220;86;21612;-61
2021/03/16 00:37:39;;;;;;;12.90;11.53;;;;;;;4.46;89.07;98127.39;1653122;86;21087;-61
2021/03/16 00:40:10;;;;;;;22.90;17.15;;;;;;;4.45;88.66;98125.27;1653171;86;21557;-61
2021/03/16 00:42:37;;;;;;;16.45;13.10;;;;;;;4.42;88.64;98124.09;1653151;86;21152;-61
2021/03/16 00:45:07;;;;;;;14.95;13.45;;;;;;;4.42;88.79;98120.68;1653278;86;21155;-61
2021/03/16 00:47:35;;;;;;;15.70;14.00;;;;;;;4.43;88.64;98126.22;1653112;86;21398;-62
2021/03/16 00:50:08;;;;;;;13.93;12.45;;;;;;;4.41;88.26;98119.00;1653124;86;21072;-61
2021/03/16 00:52:36;;;;;;;13.98;11.85;;;;;;;4.39;88.00;98116.97;1632431;86;21108;-61
2021/03/16 00:55:05;;;;;;;15.35;12.98;;;;;;;4.36;87.95;98118.36;1653142;86;21077;-61
2021/03/16 00:57:33;;;;;;;17.40;14.30;;;;;;;4.33;87.94;98110.75;1653178;86;21049;-61
2021/03/16 01:00:00;;;;;;;16.77;14.98;;;;;;;4.31;87.96;98113.83;1653087;86;21485;-61
2021/03/16 01:02:29;;;;;;;15.58;13.93;;;;;;;4.32;88.07;98111.64;1652812;85;21116;-62
2021/03/16 01:04:59;;;;;;;19.73;15.60;;;;;;;4.32;87.98;98108.63;1653134;86;21166;-62
2021/03/16 01:07:27;;;;;;;15.55;13.93;;;;;;;4.31;88.01;98109.52;1653174;86;21615;-62
2021/03/16 01:09:54;;;;;;;17.30;15.35;;;;;;;4.33;88.10;98109.47;1653140;86;21091;-62
2021/03/16 01:12:22;;;;;;;16.65;14.85;;;;;;;4.32;88.18;98106.05;1653099;86;21516;-62
2021/03/16 01:14:49;;;;;;;20.68;18.35;;;;;;;4.33;88.31;98101.74;1653060;86;21531;-62
2021/03/16 01:17:17;;;;;;;21.45;16.82;;;;;;;4.34;88.45;98099.56;1653176;86;21183;-62
2021/03/16 01:19:44;;;;;;;22.93;18.23;;;;;;;4.33;88.42;98101.30;1653129;86;21104;-62
2021/03/16 01:22:13;;;;;;;18.27;16.32;;;;;;;4.34;88.43;98105.99;1653190;85;21500;-61
2021/03/16 01:24:41;;;;;;;17.05;14.93;;;;;;;4.31;88.37;98104.38;1653194;86;21521;-61
2021/03/16 01:27:09;;;;;;;16.93;15.10;;;;;;;4.28;88.35;98105.77;1653016;86;21146;-62
2021/03/16 01:29:36;;;;;;;35.48;22.17;;;;;;;4.26;88.27;98097.71;1653041;86;21163;-61
2021/03/16 01:32:06;;;;;;;25.02;18.77;;;;;;;4.23;88.25;98104.26;1653123;86;21096;-61
2021/03/16 01:34:33;;;;;;;24.00;18.23;;;;;;;4.22;88.21;98102.13;1653148;86;21108;-61
2021/03/16 01:37:19;;;;;;;15.25;13.70;;;;;;;4.24;88.37;98099.50;1653144;86;21481;-61
2021/03/16 01:39:48;;;;;;;13.05;11.65;;;;;;;4.18;87.88;98099.31;1653042;86;21188;-62
2021/03/16 01:42:16;;;;;;;13.38;11.73;;;;;;;4.11;87.98;98103.84;1653103;86;21174;-62
2021/03/16 01:44:45;;;;;;;14.15;12.65;;;;;;;4.07;87.89;98100.98;1653133;86;21092;-62
2021/03/16 01:47:17;;;;;;;13.20;11.43;;;;;;;4.03;87.65;98103.27;1653157;86;21083;-62
2021/03/16 01:49:45;;;;;;;13.22;9.95;;;;;;;3.99;87.47;98097.88;1653313;86;21650;-62
2021/03/16 01:52:13;;;;;;;13.78;11.55;;;;;;;3.97;87.18;98100.10;1653043;86;21103;-62
2021/03/16 01:54:41;;;;;;;30.85;19.05;;;;;;;3.95;87.19;98095.45;1653174;86;21540;-62
2021/03/16 01:57:10;;;;;;;28.07;19.87;;;;;;;3.94;87.30;98088.19;1653175;86;21183;-62
2021/03/16 01:59:58;;;;;;;25.02;16.02;;;;;;;3.95;87.41;98088.58;1653160;86;21138;-62
2021/03/16 02:02:44;;;;;;;24.55;17.12;;;;;;;3.95;87.36;98089.87;1626315;87;21421;-61
2021/03/16 02:05:31;;;;;;;28.20;18.60;;;;;;;3.94;87.34;98092.05;1641507;87;21124;-61
2021/03/16 02:08:40;;;;;;;26.87;19.45;;;;;;;3.92;87.57;98088.69;1641462;87;21224;-61
2021/03/16 02:11:38;;;;;;;35.60;26.68;;;;;;;3.89;87.34;98091.37;1641503;87;21594;-61
2021/03/16 02:14:40;;;;;;;14.68;12.40;;;;;;;3.84;87.52;98084.70;1641509;87;21103;-62
2021/03/16 02:17:29;;;;;;;;;;;;;;;3.79;87.39;98075.90;1643979;87;21226;-61
2021/03/16 02:20:37;;;;;;;11.83;10.63;;;;;;;3.78;87.29;98075.50;1641498;87;20293;-62
2021/03/16 02:23:17;;;;;;;12.35;11.00;;;;;;;3.78;87.10;98079.36;1888634;76;22361;-62
2021/03/16 02:26:37;;;;;;;12.10;10.88;;;;;;;3.74;86.95;98091.48;1775391;80;21044;-62
2021/03/16 02:29:26;;;;;;;12.05;10.85;;;;;;;3.71;86.75;98091.59;1773982;81;21372;-61
2021/03/16 02:32:21;;;;;;;12.15;9.95;;;;;;;3.59;86.62;98085.61;1775258;80;22036;-60
2021/03/16 02:35:09;;;;;;;11.03;9.78;;;;;;;3.55;86.56;98102.48;1751350;81;21161;-60
2021/03/16 02:37:55;;;;;;;12.50;10.50;;;;;;;3.45;86.43;98096.80;1775291;80;21135;-60
2021/03/16 02:40:41;;;;;;;10.88;9.68;;;;;;;3.37;86.46;98091.11;1750472;81;21080;-61
2021/03/16 02:43:29;;;;;;;10.28;9.28;;;;;;;3.40;86.41;98090.53;1775302;80;23510;-60
2021/03/16 02:46:16;;;;;;;9.78;8.78;;;;;;;3.48;85.92;98090.72;1849827;77;20972;-61
2021/03/16 02:49:02;;;;;;;11.75;9.58;;;;;;;3.55;85.52;98088.34;1849974;77;21044;-60
2021/03/16 02:51:48;;;;;;;10.98;9.83;;;;;;;3.60;85.34;98088.99;1824529;77;21134;-60
2021/03/16 02:54:34;;;;;;;13.83;10.32;;;;;;;3.63;85.17;98093.59;1824373;77;21123;-61
2021/03/16 02:57:22;;;;;;;12.05;10.23;;;;;;;3.66;85.07;98095.21;1825028;77;21107;-61
2021/03/16 03:00:10;;;;;;;11.88;10.30;;;;;;;3.59;84.95;98095.05;1849838;77;21127;-61
2021/03/16 03:02:58;;;;;;;13.15;11.57;;;;;;;3.47;85.00;98096.30;1849756;77;21103;-61
2021/03/16 03:05:44;;;;;;;14.28;11.50;;;;;;;3.33;85.20;98095.95;1849862;77;21142;-60
2021/03/16 03:08:30;;;;;;;14.68;12.33;;;;;;;3.21;85.53;98104.90;1849880;77;21055;-60
2021/03/16 03:11:16;;;;;;;17.35;12.30;;;;;;;3.11;85.64;98107.40;1849840;77;21477;-60
2021/03/16 03:14:05;;;;;;;14.28;11.97;;;;;;;3.00;85.64;98098.75;1849811;77;21067;-60
2021/03/16 03:16:51;;;;;;;17.80;15.00;;;;;;;2.94;85.73;98095.12;1849858;77;21023;-60
2021/03/16 03:19:38;;;;;;;13.28;11.22;;;;;;;2.96;85.68;98093.34;1849784;77;21051;-61
2021/03/16 03:22:38;;;;;;;16.48;12.45;;;;;;;3.00;85.68;98091.48;1819007;77;21127;-61
2021/03/16 03:25:27;;;;;;;16.93;15.13;;;;;;;3.04;85.69;98095.19;1768151;80;22338;-61
2021/03/16 03:28:19;;;;;;;16.40;14.55;;;;;;;3.06;85.58;98083.58;1737616;82;21255;-63
2021/03/16 03:31:06;;;;;;;19.65;15.63;;;;;;;2.99;85.71;98088.55;1768169;81;21096;-62
2021/03/16 03:33:52;;;;;;;24.60;18.52;;;;;;;2.92;85.92;98085.78;1735746;82;21066;-62
2021/03/16 03:36:39;;;;;;;20.80;17.62;;;;;;;2.86;86.33;98088.09;1737176;82;21132;-61
2021/03/16 03:39:26;;;;;;;20.12;15.68;;;;;;;2.82;86.61;98086.50;1767635;81;21210;-62
2021/03/16 03:42:12;;;;;;;15.50;13.72;;;;;;;2.76;86.97;98079.86;1735501;82;21081;-61
2021/03/16 03:44:58;;;;;;;16.15;14.05;;;;;;;2.71;87.12;98083.02;1737141;82;21085;-62
2021/03/16 03:47:44;;;;;;;19.40;14.35;;;;;;;2.67;87.15;98088.29;1767711;81;21571;-61
2021/03/16 03:50:31;;;;;;;18.05;15.08;;;;;;;2.59;87.06;98096.70;1735621;82;21093;-61
2021/03/16 03:53:16;;;;;;;15.70;14.00;;;;;;;2.48;87.14;98098.30;1737230;82;21576;-60
2021/03/16 03:56:02;;;;;;;16.07;13.30;;;;;;;2.44;87.49;98103.12;1767608;80;21080;-60
2021/03/16 03:58:48;;;;;;;15.18;12.68;;;;;;;2.41;87.37;98110.46;1735584;82;20963;-60
2021/03/16 04:01:34;;;;;;;17.10;13.85;;;;;;;2.34;87.32;98111.55;1737089;82;21160;-60
2021/03/16 04:04:20;;;;;;;17.60;14.75;;;;;;;2.24;87.49;98116.55;1747680;81;21044;-61
2021/03/16 04:07:07;;;;;;;20.23;16.12;;;;;;;2.17;87.82;98119.36;1735574;82;21370;-60
2021/03/16 04:09:56;;;;;;;22.45;17.27;;;;;;;2.10;88.10;98120.41;1737071;82;21081;-61
2021/03/16 04:12:42;;;;;;;24.27;17.42;;;;;;;2.07;88.48;98119.61;1767688;81;21051;-61
2021/03/16 04:15:29;;;;;;;21.50;15.08;;;;;;;2.10;88.60;98119.13;1735576;82;21062;-61
2021/03/16 04:18:16;;;;;;;19.55;15.68;;;;;;;2.11;88.65;98127.22;1737150;82;21077;-61
2021/03/16 04:21:04;;;;;;;22.20;18.25;;;;;;;2.10;88.31;98126.38;1767562;81;21457;-61
2021/03/16 04:23:50;;;;;;;19.17;15.83;;;;;;;2.08;88.35;98125.58;1742049;82;21102;-60
2021/03/16 04:26:36;;;;;;;20.48;16.30;;;;;;;2.09;88.44;98117.00;1742666;82;21063;-61
2021/03/16 04:29:22;;;;;;;21.55;18.05;;;;;;;2.13;88.50;98119.05;1744002;82;21065;-61
2021/03/16 04:32:08;;;;;;;21.05;17.05;;;;;;;2.13;88.45;98119.88;1815897;79;21047;-61
2021/03/16 04:34:54;;;;;;;22.35;17.50;;;;;;;2.17;88.72;98124.48;1815901;79;21193;-60
2021/03/16 04:37:40;;;;;;;20.88;16.42;;;;;;;2.21;88.83;98116.63;1815835;79;21086;-60
2021/03/16 04:40:27;;;;;;;17.90;15.78;;;;;;;2.27;88.86;98118.19;1815856;79;21000;-61
2021/03/16 04:43:13;;;;;;;19.05;15.38;;;;;;;2.31;88.79;98114.65;1815852;79;21071;-63
2021/03/16 04:45:59;;;;;;;18.45;14.85;;;;;;;2.36;88.89;98120.49;1815868;79;21031;-61
2021/03/16 04:48:47;;;;;;;20.65;16.02;;;;;;;2.43;88.88;98118.12;1774656;80;21501;-61
2021/03/16 04:51:33;;;;;;;19.02;15.85;;;;;;;2.49;88.82;98125.64;1742596;82;21146;-61
2021/03/16 04:54:20;;;;;;;16.48;14.63;;;;;;;2.56;88.67;98116.03;1743965;82;21069;-61
2021/03/16 04:57:07;;;;;;;16.20;14.20;;;;;;;2.59;88.42;98114.22;1815855;79;21570;-61
2021/03/16 04:59:54;;;;;;;13.93;11.38;;;;;;;2.61;88.19;98111.13;1815855;79;21071;-62
2021/03/16 05:02:40;;;;;;;14.23;11.00;;;;;;;2.60;87.88;98105.60;1815832;79;21439;-62
2021/03/16 05:05:26;;;;;;;11.35;9.68;;;;;;;2.62;87.73;98106.84;1815785;79;21107;-61
2021/03/16 05:08:13;;;;;;;13.03;11.05;;;;;;;2.65;87.27;98108.88;1815832;79;21489;-61
2021/03/16 05:10:59;;;;;;;13.65;10.85;;;;;;;2.69;86.78;98109.63;1815854;79;21047;-61
2021/03/16 05:13:45;;;;;;;12.07;10.75;;;;;;;2.71;86.68;98115.11;1815843;79;21611;-61
2021/03/16 05:16:32;;;;;;;13.93;10.85;;;;;;;2.78;86.30;98119.61;1815865;79;21246;-61
2021/03/16 05:19:18;;;;;;;15.05;11.40;;;;;;;2.80;86.15;98115.72;1774592;80;21164;-61
2021/03/16 05:22:04;;;;;;;14.87;12.05;;;;;;;2.83;85.94;98118.16;1742404;81;21174;-62
2021/03/16 05:24:50;;;;;;;13.88;11.63;;;;;;;2.88;85.95;98116.29;1742245;82;21081;-61
2021/03/16 05:27:36;;;;;;;12.75;11.30;;;;;;;2.91;86.02;98101.63;1742674;82;21644;-61
2021/03/16 05:30:24;;;;;;;13.98;11.78;;;;;;;3.02;85.81;98098.25;1743932;82;21386;-61
2021/03/16 05:33:10;;;;;;;14.15;12.45;;;;;;;3.00;85.22;98101.31;1815794;78;21570;-60
2021/03/16 05:35:56;;;;;;;14.30;12.80;;;;;;;2.99;85.11;98098.83;1815832;79;21122;-60
2021/03/16 05:38:43;;;;;;;18.05;13.93;;;;;;;3.04;84.85;98100.77;1815807;79;21039;-60
2021/03/16 05:41:30;;;;;;;18.35;13.22;;;;;;;3.05;84.96;98106.30;1815846;79;21127;-61
2021/03/16 05:44:17;;;;;;;17.48;14.25;;;;;;;3.09;85.01;98097.61;1774624;80;21209;-61
2021/03/16 05:47:03;;;;;;;19.90;16.32;;;;;;;3.11;84.62;98104.83;1742552;82;21075;-60
2021/03/16 05:49:52;;;;;;;18.30;13.18;;;;;;;3.22;84.37;98100.16;1742295;82;21149;-61
2021/03/16 05:52:37;;;;;;;15.03;13.13;;;;;;;3.36;83.54;98104.41;1742577;82;21083;-62
2021/03/16 05:55:25;;;;;;;18.12;14.63;;;;;;;3.35;83.07;98109.14;1774609;80;21176;-61
2021/03/16 05:58:12;;;;;;;20.17;14.98;;;;;;;3.41;83.49;98123.05;1774556;80;21229;-61
2021/03/16 06:00:58;;;;;;;24.82;17.55;;;;;;;3.52;83.53;98119.29;1774513;80;22052;-61
2021/03/16 06:03:48;;;;;;;20.68;15.90;;;;;;;3.64;83.36;98125.28;1774521;80;21157;-61
2021/03/16 06:06:35;;;;;;;25.08;18.75;;;;;;;3.79;83.22;98120.45;1773466;80;21085;-61
2021/03/16 06:09:20;;;;;;;21.12;17.25;;;;;;;3.94;82.58;98114.36;1774569;80;21062;-64
2021/03/16 06:12:08;;;;;;;40.45;24.77;;;;;;;4.04;82.39;98108.80;1774476;80;23587;-65
2021/03/16 06:14:56;;;;;;;36.55;24.80;;;;;;;4.14;82.21;98111.45;1742562;82;21567;-63
2021/03/16 06:17:54;;;;;;;17.80;13.10;;;;;;;4.27;82.25;98105.38;1774451;80;21069;-62
2021/03/16 06:20:41;;;;;;;20.40;14.70;;;;;;;4.47;81.86;98106.74;1815683;78;21075;-62
2021/03/16 06:23:32;;;;;;;17.45;14.40;;;;;;;4.67;81.42;98108.55;1815540;79;21102;-63
2021/03/16 06:26:19;;;;;;;17.92;14.63;;;;;;;4.84;80.43;98110.44;1815687;79;21117;-63
2021/03/16 06:29:10;;;;;;;16.07;12.90;;;;;;;4.97;79.89;98103.08;1815641;79;21131;-63
2021/03/16 06:31:56;;;;;;;15.13;12.55;;;;;;;5.05;78.71;98102.30;1815701;79;21106;-63
2021/03/16 06:34:43;;;;;;;16.73;13.90;;;;;;;5.12;78.55;98097.29;1815733;79;21052;-63
2021/03/16 06:37:31;;;;;;;18.25;13.98;;;;;;;5.23;78.14;98103.27;1815721;79;21049;-63
2021/03/16 06:40:32;;;;;;;16.32;14.28;;;;;;;5.36;78.39;98101.88;1815646;79;21203;-62
2021/03/16 06:43:24;;;;;;;17.67;13.25;;;;;;;5.51;77.99;98090.45;1794826;79;21492;-62
2021/03/16 06:46:10;;;;;;;18.23;13.83;;;;;;;5.67;76.78;98085.46;1815668;79;21484;-63
2021/03/16 06:48:56;;;;;;;15.50;13.25;;;;;;;5.80;75.95;98087.03;1815673;79;21558;-62
2021/03/16 06:51:42;;;;;;;15.72;12.78;;;;;;;5.88;74.75;98079.39;1815722;79;21488;-62
2021/03/16 06:54:28;;;;;;;18.35;14.70;;;;;;;6.02;74.18;98080.05;1815696;79;21362;-61
2021/03/16 06:57:24;;;;;;;17.07;12.63;;;;;;;6.11;73.29;98076.23;1815602;79;21157;-62
2021/03/16 07:00:14;;;;;;;18.70;14.25;;;;;;;6.22;72.37;98083.02;1815636;79;21071;-62
2021/03/16 07:03:04;;;;;;;16.45;13.48;;;;;;;6.27;72.79;98088.81;1815630;79;21063;-62
2021/03/16 07:05:50;;;;;;;19.73;13.43;;;;;;;6.37;71.88;98091.82;1792377;79;21040;-62
2021/03/16 07:08:37;;;;;;;16.95;13.15;;;;;;;6.42;71.15;98093.71;1815565;79;21194;-62
2021/03/16 07:11:28;;;;;;;15.18;13.38;;;;;;;6.46;71.01;98101.25;1815337;79;21103;-65
2021/03/16 07:14:17;;;;;;;18.90;14.15;;;;;;;6.50;71.07;98106.66;1754116;80;21161;-66
2021/03/16 07:17:04;;;;;;;18.80;15.10;;;;;;;6.55;71.60;98100.00;1769061;79;21516;-66
2021/03/16 07:19:51;;;;;;;21.17;14.68;;;;;;;6.63;70.91;98099.62;1815686;79;21039;-65
2021/03/16 07:22:43;;;;;;;17.80;13.20;;;;;;;6.72;70.91;98106.95;1815104;78;21393;-65
2021/03/16 07:25:31;;;;;;;17.12;13.98;;;;;;;6.76;70.13;98106.73;1811210;79;21158;-65
2021/03/16 07:28:18;;;;;;;17.15;14.18;;;;;;;6.81;70.21;98100.03;1790160;79;21126;-63
2021/03/16 07:31:06;;;;;;;20.75;14.58;;;;;;;6.87;70.06;98105.75;1778939;80;21170;-66
2021/03/16 07:33:55;;;;;;;15.60;13.03;;;;;;;6.97;69.23;98101.45;1718308;82;21592;-64
2021/03/16 07:36:42;;;;;;;15.90;13.98;;;;;;;7.08;68.68;98097.41;1707302;84;22098;-64
2021/03/16 07:39:31;;;;;;;17.45;14.23;;;;;;;7.18;68.83;98084.88;1736850;82;21072;-64
2021/03/16 07:42:18;;;;;;;16.65;13.48;;;;;;;7.30;68.72;98089.42;1705964;83;21720;-64
2021/03/16 07:45:07;;;;;;;17.50;14.00;;;;;;;7.42;68.12;98085.38;1689191;84;21612;-64
2021/03/16 07:47:56;;;;;;;18.02;14.05;;;;;;;7.50;67.99;98085.83;1737011;82;21151;-62
2021/03/16 07:50:48;;;;;;;17.52;15.10;;;;;;;7.60;67.95;98089.15;1687841;84;21621;-63
2021/03/16 07:53:35;;;;;;;19.27;14.83;;;;;;;7.71;68.57;98089.07;1707455;84;21203;-64
2021/03/16 07:56:27;;;;;;;15.85;13.80;;;;;;;7.83;68.26;98084.54;1736961;81;21516;-64
2021/03/16 07:59:19;;;;;;;16.10;14.13;;;;;;;7.96;68.14;98086.88;1705654;83;21073;-63
2021/03/16 08:02:05;;;;;;;17.23;14.85;;;;;;;7.97;67.00;98088.55;1707552;84;21151;-64
2021/03/16 08:04:51;;;;;;;19.95;14.45;;;;;;;8.00;67.80;98087.53;1736994;82;21201;-65
2021/03/16 08:07:39;;;;;;;18.23;13.98;;;;;;;8.06;66.75;98076.86;1706068;84;21105;-65
2021/03/16 08:10:28;;;;;;;16.48;13.55;;;;;;;8.04;66.70;98081.28;1707440;84;21140;-65
2021/03/16 08:13:19;;;;;;;17.70;13.68;;;;;;;8.05;66.68;98084.24;1736880;82;21171;-64
2021/03/16 08:16:12;;;;;;;16.48;13.60;;;;;;;8.07;66.30;98082.41;1705993;84;21225;-64
2021/03/16 08:19:27;;;;;;;14.93;13.43;;;;;;;8.11;66.29;98082.63;1707419;84;21577;-63
2021/03/16 08:22:41;;;;;;;16.40;12.75;;;;;;;8.12;66.30;98081.72;1674309;84;21218;-63
2021/03/16 08:25:32;;;;;;;17.05;13.60;;;;;;;8.17;66.05;98083.16;1786613;80;21066;-63
2021/03/16 08:28:19;;;;;;;18.40;15.10;;;;;;;8.27;65.79;98086.06;1746880;82;21069;-65
2021/03/16 08:31:08;;;;;;;19.05;14.83;;;;;;;8.35;65.81;98089.58;1726049;83;21541;-62
2021/03/16 08:33:54;;;;;;;19.70;15.05;;;;;;;8.39;65.94;98093.68;1705431;83;21403;-62
2021/03/16 08:36:42;;;;;;;18.45;15.10;;;;;;;8.45;65.85;98090.73;1725970;83;21519;-64
2021/03/16 08:39:30;;;;;;;16.73;13.40;;;;;;;8.54;66.15;98085.89;1725987;83;21066;-64
2021/03/16 08:42:24;;;;;;;19.45;14.05;;;;;;;8.66;65.83;98092.14;1725984;83;21137;-63
2021/03/16 08:45:13;;;;;;;17.00;13.10;;;;;;;8.74;65.37;98080.06;1725998;82;21041;-65
2021/03/16 08:47:59;;;;;;;18.50;14.35;;;;;;;8.80;64.57;98079.23;1726004;83;21213;-65
2021/03/16 08:50:45;;;;;;;14.15;12.53;;;;;;;8.87;65.36;98083.62;1725725;83;21165;-63
2021/03/16 08:53:35;;;;;;;19.10;13.78;;;;;;;8.99;64.99;98072.08;1714552;80;21234;-64
2021/03/16 08:56:22;;;;;;;15.75;13.08;;;;;;;9.16;64.74;98078.09;1771591;81;21073;-63
2021/03/16 08:59:10;;;;;;;20.82;13.88;;;;;;;9.30;64.22;98078.95;1771754;81;21080;-63
2021/03/16 09:01:58;;;;;;;21.45;14.83;;;;;;;9.40;63.87;98079.23;1771782;81;22112;-65
2021/03/16 09:04:45;;;;;;;24.27;14.90;;;;;;;9.47;63.40;98081.84;1771660;81;21227;-63
2021/03/16 09:07:36;;;;;;;17.02;13.60;;;;;;;9.60;63.93;98087.14;1754155;80;21121;-68
2021/03/16 09:10:34;;;;;;;22.52;14.80;;;;;;;9.78;62.86;98081.34;1756133;81;21118;-67
2021/03/16 09:13:27;;;;;;;18.57;16.23;;;;;;;9.89;63.09;98074.55;1756072;81;21058;-63
2021/03/16 09:16:22;;;;;;;48.60;16.32;;;;;;;9.98;62.45;98081.80;1742989;80;21349;-65
2021/03/16 09:19:17;;;;;;;21.85;15.58;;;;;;;10.05;63.02;98068.41;1745888;82;21163;-64
2021/03/16 09:22:10;;;;;;;20.00;14.23;;;;;;;10.11;62.08;98070.64;1725907;83;21061;-63
2021/03/16 09:24:51;;;;;;;25.45;14.30;;;;;;;10.19;62.78;98062.76;1746390;80;21075;-62
2021/03/16 09:27:41;;;;;;;25.32;14.53;;;;;;;10.31;61.90;98065.08;1745802;80;21654;-64
2021/03/16 09:30:52;;;;;;;25.12;14.73;;;;;;;10.40;61.41;98062.34;1746264;82;22220;-64
2021/03/16 09:33:39;;;;;;;31.48;14.23;;;;;;;10.47;62.22;98062.34;1746086;81;21107;-64
2021/03/16 09:36:29;;;;;;;33.67;15.23;;;;;;;10.61;61.27;98067.48;1678223;83;21142;-66
2021/03/16 09:39:06;;;;;;;18.87;14.53;;;;;;;10.61;61.82;98064.89;1769549;80;21108;-64
2021/03/16 09:41:54;;;;;;;24.67;15.18;;;;;;;10.70;61.49;98069.05;1873470;75;22764;-62
2021/03/16 09:44:38;;;;;;;26.93;13.72;;;;;;;10.67;61.45;98065.80;1841545;78;21061;-63
2021/03/16 09:47:08;;;;;;;27.02;13.90;;;;;;;10.73;61.42;98055.48;1839688;78;21462;-63
2021/03/16 09:49:41;;;;;;;15.70;13.43;;;;;;;10.77;60.80;98055.20;1811423;78;21193;-63
2021/03/16 09:52:10;;;;;;;18.65;14.47;;;;;;;10.79;60.04;98057.20;1841321;78;20974;-63
2021/03/16 09:54:44;;;;;;;15.32;13.72;;;;;;;10.70;59.42;98052.61;1841475;78;21018;-63
2021/03/16 09:57:15;;;;;;;16.87;14.30;;;;;;;10.60;59.18;98058.02;1812887;78;21046;-64
2021/03/16 09:59:46;;;;;;;15.38;13.20;;;;;;;10.47;59.78;98054.08;1841421;77;21352;-62
2021/03/16 10:02:13;;;;;;;14.47;12.85;;;;;;;10.40;59.65;98057.98;1841536;78;21056;-62
2021/03/16 10:04:50;;;;;;;39.40;16.12;;;;;;;10.40;60.00;98059.75;1841437;77;20981;-63
2021/03/16 10:07:28;;;;;;;23.77;14.03;;;;;;;10.44;60.90;98056.03;1841473;78;21089;-64
2021/03/16 10:10:16;;;;;;;19.48;12.20;;;;;;;10.53;60.49;98061.50;1841485;78;21447;-64
2021/03/16 10:13:02;;;;;;;18.10;13.30;;;;;;;10.61;59.90;98055.79;1840995;77;21280;-65
2021/03/16 10:15:35;;;;;;;17.73;15.50;;;;;;;10.67;59.90;98054.94;1841508;78;21131;-63
2021/03/16 10:18:05;;;;;;;;;;;;;;;10.65;60.22;98054.20;1844203;77;21061;-63
2021/03/16 10:20:45;;;;;;;19.75;12.47;;;;;;;10.63;61.04;98049.56;1840716;77;20246;-64
2021/03/16 10:23:19;;;;;;;15.88;12.73;;;;;;;10.67;60.40;98047.14;1808482;79;21058;-64
2021/03/16 10:25:57;;;;;;;14.33;12.60;;;;;;;10.72;59.50;98052.05;1806196;79;21432;-63
2021/03/16 10:28:37;;;;;;;16.30;12.93;;;;;;;10.67;59.41;98054.94;1808459;79;21596;-62
2021/03/16 10:31:22;;;;;;;25.08;13.83;;;;;;;10.56;60.33;98057.41;1808453;79;21506;-65
2021/03/16 10:33:52;;;;;;;13.20;11.85;;;;;;;10.48;61.02;98048.41;1808311;79;21105;-64
2021/03/16 10:36:22;;;;;;;18.60;11.63;;;;;;;10.47;60.33;98049.34;1808274;78;21065;-63
2021/03/16 10:38:50;;;;;;;142.18;21.10;;;;;;;10.53;60.44;98043.30;1807558;78;22347;-62
2021/03/16 10:41:19;;;;;;;13.58;12.03;;;;;;;10.64;60.69;98054.30;1811474;77;21120;-64
2021/03/16 10:43:47;;;;;;;14.28;11.85;;;;;;;10.69;60.04;98049.17;1813679;78;21069;-63
2021/03/16 10:46:15;;;;;;;16.10;12.03;;;;;;;10.72;59.37;98053.34;1813648;79;21106;-64
2021/03/16 10:48:44;;;;;;;12.20;10.15;;;;;;;10.66;59.61;98051.14;1787424;79;21045;-63
2021/03/16 10:51:12;;;;;;;18.42;9.98;;;;;;;10.55;58.63;98052.30;1813691;79;21230;-63
2021/03/16 10:53:40;;;;;;;25.00;11.55;;;;;;;10.44;57.90;98049.53;1813390;79;21116;-64
2021/03/16 10:56:09;;;;;;;24.18;11.25;;;;;;;10.37;58.73;98042.61;1813466;79;21129;-63
2021/03/16 10:58:37;;;;;;;13.48;12.05;;;;;;;10.38;59.16;98040.84;1813515;79;21140;-64
2021/03/16 11:01:05;;;;;;;27.65;11.97;;;;;;;10.40;59.02;98041.55;1813330;78;21066;-62
2021/03/16 11:03:34;;;;;;;23.55;11.93;;;;;;;10.38;59.76;98044.28;1813420;79;21371;-62
2021/03/16 11:06:03;;;;;;;16.97;11.73;;;;;;;10.37;59.78;98036.58;1813317;78;21501;-62
2021/03/16 11:08:33;;;;;;;33.73;13.65;;;;;;;10.33;60.47;98034.63;1813342;78;21148;-63
2021/03/16 11:11:08;;;;;;;16.50;12.43;;;;;;;10.33;61.22;98037.23;1812376;78;21110;-65
2021/03/16 11:13:49;;;;;;;21.17;12.93;;;;;;;10.33;61.13;98034.17;1782427;79;21604;-65
2021/03/16 11:16:16;;;;;;;17.15;12.60;;;;;;;10.34;61.97;98033.23;1812318;79;21357;-65
2021/03/16 11:18:46;;;;;;;19.23;12.95;;;;;;;10.39;61.81;98038.15;1813281;78;21073;-64
2021/03/16 11:21:14;;;;;;;15.50;12.33;;;;;;;10.42;62.07;98036.63;1763437;81;21200;-64
2021/03/16 11:23:41;;;;;;;24.92;13.83;;;;;;;10.48;62.38;98030.22;1745064;81;21082;-64
2021/03/16 11:26:09;;;;;;;15.15;13.55;;;;;;;10.58;62.93;98028.71;1745025;81;21106;-62
2021/03/16 11:28:39;;;;;;;18.30;15.58;;;;;;;10.68;63.33;98025.41;1745298;80;21367;-63
2021/03/16 11:31:28;;;;;;;17.75;14.60;;;;;;;10.73;64.31;98043.31;1720530;80;21574;-63
2021/03/16 11:34:30;;;;;;;41.95;17.50;;;;;;;10.76;64.69;98038.39;1725675;82;21655;-63
2021/03/16 11:37:19;;;;;;;19.98;15.03;;;;;;;10.79;65.31;98040.30;1754950;81;21188;-62
2021/03/16 11:40:07;;;;;;;19.50;14.95;;;;;;;10.78;64.81;98036.06;1754768;81;21054;-64
2021/03/16 11:42:53;;;;;;;17.27;15.05;;;;;;;10.76;65.09;98035.32;1755823;80;21552;-65
2021/03/16 11:45:40;;;;;;;18.05;14.73;;;;;;;10.79;65.04;98031.69;1755854;81;21244;-63
2021/03/16 11:48:27;;;;;;;21.77;13.70;;;;;;;10.85;64.66;98039.08;1755852;81;21038;-61
2021/03/16 11:51:13;;;;;;;15.08;13.53;;;;;;;10.86;63.83;98026.44;1755862;81;21074;-62
2021/03/16 11:54:00;;;;;;;24.60;14.68;;;;;;;10.82;62.30;98027.56;1755895;80;21145;-63
2021/03/16 11:56:46;;;;;;;19.35;16.23;;;;;;;10.74;63.24;98029.38;1755883;80;21261;-62
2021/03/16 11:59:33;;;;;;;17.37;15.45;;;;;;;10.72;63.77;98040.34;1755804;80;21070;-62
2021/03/16 12:02:20;;;;;;;18.90;16.30;;;;;;;10.60;64.01;98034.16;1755864;81;21157;-63
2021/03/16 12:05:07;;;;;;;18.42;15.60;;;;;;;10.45;64.54;98031.70;1755853;81;21153;-64
2021/03/16 12:07:53;;;;;;;20.00;14.35;;;;;;;10.34;64.76;98031.94;1755915;81;21071;-63
2021/03/16 12:10:41;;;;;;;22.10;14.47;;;;;;;10.29;65.06;98024.89;1755865;81;21433;-63
2021/03/16 12:13:28;;;;;;;23.67;16.23;;;;;;;10.33;65.07;98023.77;1755753;81;21134;-63
2021/03/16 12:16:15;;;;;;;17.57;15.08;;;;;;;10.40;65.72;98028.09;1755867;81;21053;-63
2021/03/16 12:19:02;;;;;;;20.12;16.30;;;;;;;10.47;65.32;98027.25;1755874;80;21861;-65
2021/03/16 12:21:48;;;;;;;21.55;15.30;;;;;;;10.46;65.55;98029.48;1755774;80;21138;-63
2021/03/16 12:24:36;;;;;;;20.00;16.45;;;;;;;10.46;65.77;98016.02;1731847;81;21776;-64
2021/03/16 12:27:22;;;;;;;19.32;16.93;;;;;;;10.47;66.10;98017.69;1755831;81;21066;-64
2021/03/16 12:30:11;;;;;;;17.55;15.78;;;;;;;10.48;66.62;98019.81;1755849;81;21114;-63
2021/03/16 12:32:57;;;;;;;21.93;16.17;;;;;;;10.48;66.69;98018.05;1755807;81;21250;-63
2021/03/16 12:35:45;;;;;;;24.02;19.50;;;;;;;10.49;66.45;98014.98;1755825;81;21068;-64